LiveATC.Net - Listen to live air traffic control over the Internet!


ICAO: KTTN  IATA: TTN   Airport: Trenton Mercer Airport
City: Trenton   State/Province: New Jersey
Country: United States   Continent: North America
KTTN METAR Weather: KTTN 010953Z 05010KT 10SM OVC004 13/12 A3019 RMK AO2 SLP216 T01330122
KTTN Flight Activity (FlightAware)
KTTN Airport Info   (AirNav) (iFlightPlanner)
KTTN VFR Sectional Chart   (iFlightPlanner) 
KTTN IFR Low Chart   (iFlightPlanner) 
KTTN Ground/Tower
Feed Status: UP   Listeners: 0
Listen right in your browser - requires Flash (in browser, requires Flash)
Click here to listen with your own player (launches your MP3 player)
KTTN Ground/Tower Audio Archives
FacilityFrequency
Trenton Ground121.900
Trenton Tower120.700


NOTICE

Unauthorized use prohibited. See LiveATC.net Terms of Service


Find LiveATC Audio Streams


Airport/ARTCC Code

Frequency
(e.g., 124.400, 128.75)
Site-wide search

Browse LiveATC Feeds
LiveATC Coverage Map
Top 50 LiveATC Feeds
Bad Weather Areas

LiveATC FAQ
Offer a LiveATC Feed
Contact LiveATC.net
Press Inquiries

LiveATC on iPhone
LiveATC on Android

Windows Phone
Windows 8/10

LiveATC Mobile
(Mobile browser)

ATC Audio Archives
Interesting Recordings

LiveATC Forums


Home Page
About LiveATC.net
Make a Donation
LiveATC Store

Terms of Use
Privacy Policy

Canadian Air Freqs

AIRMETs/SIGMETs

FAA Airport Status
Nat'l Airspace Status
Arrival Demand Charts


Server Software By:
Icecast.org
Liquidsoap